< < Back
Terminal Aerodrome Forecast


Current Version              Previous Versions:   1  2  3  4  5  6  7  8  9  

Terminal Aerodrome Forecast

260
FTUS42 KCAE 021800 AAA
TAFAGS
TAF AMD
KAGS 021856Z 0219/0318 27005KT P6SM SCT150
     FM022300 03006KT P6SM BKN050
     FM030200 07006KT P6SM OVC015
     FM030800 07006KT 6SM -RA OVC007
     FM031400 07006KT 4SM -RA BR OVC007=



Latest METAR

274
SAUS70 KWBC 022300 RRA
MTRAGS
METAR KAGS 022253Z 26006KT 10SM CLR 22/13 A3017 RMK AO2 SLP217
T02220133


USA.gov is the U.S. government's official web portal to all federal, state and local government web resources and services.